createdAt,value
2023-05-10T00:01:44.282Z,100226.34
2023-05-10T00:04:11.241Z,100223.25
2023-05-10T00:06:40.118Z,100221.28
2023-05-10T00:09:09.032Z,100210.16
2023-05-10T00:11:35.872Z,100209.97
2023-05-10T00:14:04.797Z,100212.50
2023-05-10T00:16:33.605Z,100217.88
2023-05-10T00:19:02.463Z,100218.09
2023-05-10T00:21:29.470Z,100216.25
2023-05-10T00:23:56.162Z,100215.59
2023-05-10T00:26:24.887Z,100213.97
2023-05-10T00:28:51.434Z,100214.03
2023-05-10T00:31:20.119Z,100215.63
2023-05-10T00:33:46.696Z,100201.16
2023-05-10T00:36:13.278Z,100208.13
2023-05-10T00:38:39.821Z,100207.34
2023-05-10T00:41:10.905Z,100202.13
2023-05-10T00:43:39.755Z,100200.50
2023-05-10T00:46:07.051Z,100203.94
2023-05-10T00:48:36.374Z,100202.88
2023-05-10T00:51:07.043Z,100198.66
2023-05-10T00:53:36.421Z,100196.84
2023-05-10T00:56:04.246Z,100197.75
2023-05-10T00:58:36.072Z,100196.00
2023-05-10T01:01:08.438Z,100196.81
2023-05-10T01:03:37.713Z,100197.44
2023-05-10T01:06:06.892Z,100196.13
2023-05-10T01:08:38.790Z,100196.47
2023-05-10T01:11:13.394Z,100197.09
2023-05-10T01:13:43.339Z,100202.09
2023-05-10T01:16:12.646Z,100191.94
2023-05-10T01:18:42.076Z,100197.97
2023-05-10T01:21:42.869Z,100202.84
2023-05-10T01:24:46.913Z,100199.44
2023-05-10T01:27:26.041Z,100195.84
2023-05-10T01:30:14.017Z,100193.56
2023-05-10T01:32:56.791Z,100199.28
2023-05-10T01:35:33.570Z,100199.09
2023-05-10T01:38:18.021Z,100197.69
2023-05-10T01:41:12.266Z,100194.13
2023-05-10T01:43:49.599Z,100188.41
2023-05-10T01:46:21.694Z,100191.72
2023-05-10T01:48:55.134Z,100191.66
2023-05-10T01:51:26.241Z,100186.53
2023-05-10T01:54:02.388Z,100189.38
2023-05-10T01:56:31.971Z,100178.97
2023-05-10T01:59:00.223Z,100184.41
2023-05-10T02:01:28.235Z,100177.78
2023-05-10T02:03:56.324Z,100176.94
2023-05-10T02:06:24.791Z,100179.69
2023-05-10T02:08:55.637Z,100164.94
2023-05-10T02:11:23.502Z,100168.19
2023-05-10T02:13:52.694Z,100165.66
2023-05-10T02:16:22.046Z,100168.38
2023-05-10T02:18:49.768Z,100170.44
2023-05-10T02:21:17.831Z,100163.59
2023-05-10T02:23:48.451Z,100166.38
2023-05-10T02:26:17.032Z,100175.66
2023-05-10T02:28:46.694Z,100167.25
2023-05-10T02:31:14.203Z,100163.66
2023-05-10T02:33:44.557Z,100167.66
2023-05-10T02:36:18.399Z,100168.09
2023-05-10T02:38:49.272Z,100171.56
2023-05-10T02:41:16.351Z,100164.72
2023-05-10T02:43:50.701Z,100161.59
2023-05-10T02:46:19.937Z,100161.75
2023-05-10T02:48:49.112Z,100166.81
2023-05-10T02:51:18.630Z,100170.44
2023-05-10T02:53:50.520Z,100163.34
2023-05-10T02:56:32.212Z,100166.19
2023-05-10T02:58:58.943Z,100165.41
2023-05-10T03:01:25.632Z,100171.06
2023-05-10T03:03:54.982Z,100166.03
2023-05-10T03:06:26.484Z,100159.31
2023-05-10T03:08:55.657Z,100170.56
2023-05-10T03:11:33.183Z,100170.19
2023-05-10T03:14:18.593Z,100163.50
2023-05-10T03:17:00.711Z,100169.34
2023-05-10T03:19:42.637Z,100168.50
2023-05-10T03:22:14.217Z,100168.53
2023-05-10T03:24:42.266Z,100169.47
2023-05-10T03:27:12.754Z,100161.44
2023-05-10T03:29:40.637Z,100165.06
2023-05-10T03:32:07.482Z,100163.56
2023-05-10T03:34:34.054Z,100157.44
2023-05-10T03:37:00.824Z,100161.75
2023-05-10T03:39:30.156Z,100172.03
2023-05-10T03:41:59.206Z,100168.59
2023-05-10T03:44:25.718Z,100166.22
2023-05-10T03:46:52.460Z,100166.41
2023-05-10T03:49:21.620Z,100164.81
2023-05-10T03:51:48.042Z,100165.88
2023-05-10T03:54:14.548Z,100168.34
2023-05-10T03:56:46.165Z,100162.63
2023-05-10T03:59:17.356Z,100166.75
2023-05-10T04:01:44.396Z,100160.59
2023-05-10T04:04:13.396Z,100161.28
2023-05-10T04:06:40.215Z,100156.34
2023-05-10T04:09:06.887Z,100162.69
2023-05-10T04:11:35.948Z,100164.78
2023-05-10T04:14:05.291Z,100166.53
2023-05-10T04:16:32.112Z,100161.28
2023-05-10T04:19:01.076Z,100156.13
2023-05-10T04:21:29.891Z,100165.03
2023-05-10T04:23:56.436Z,100167.25
2023-05-10T04:26:27.572Z,100164.84
2023-05-10T04:28:56.795Z,100165.19
2023-05-10T04:31:25.724Z,100171.97
2023-05-10T04:33:52.691Z,100168.66
2023-05-10T04:36:22.378Z,100172.94
2023-05-10T04:38:51.237Z,100163.44
2023-05-10T04:41:20.146Z,100173.63
2023-05-10T04:43:50.465Z,100167.66
2023-05-10T04:46:19.218Z,100166.88
2023-05-10T04:48:45.848Z,100167.84
2023-05-10T04:51:12.548Z,100157.06
2023-05-10T04:53:43.084Z,100173.38
2023-05-10T04:56:15.997Z,100162.28
2023-05-10T04:58:42.577Z,100158.03
2023-05-10T05:01:09.527Z,100164.53
2023-05-10T05:03:36.553Z,100169.13
2023-05-10T05:06:03.929Z,100163.50
2023-05-10T05:08:30.493Z,100158.34
2023-05-10T05:10:57.099Z,100164.34
2023-05-10T05:13:25.902Z,100164.97
2023-05-10T05:15:52.705Z,100166.00
2023-05-10T05:18:19.497Z,100166.03
2023-05-10T05:20:46.077Z,100171.38
2023-05-10T05:23:12.665Z,100171.41
2023-05-10T05:25:43.825Z,100175.72
2023-05-10T05:28:12.734Z,100173.84
2023-05-10T05:30:39.306Z,100179.97
2023-05-10T05:33:05.940Z,100182.78
2023-05-10T05:35:32.513Z,100181.84
2023-05-10T05:37:59.100Z,100180.28
2023-05-10T05:40:27.983Z,100180.22
2023-05-10T05:42:54.574Z,100190.53
2023-05-10T05:45:23.567Z,100189.81
2023-05-10T05:47:50.348Z,100195.91
2023-05-10T05:50:19.244Z,100196.03
2023-05-10T05:52:45.805Z,100200.50
2023-05-10T05:55:12.895Z,100198.63
2023-05-10T05:57:41.536Z,100199.47
2023-05-10T06:00:08.769Z,100195.16
2023-05-10T06:02:35.536Z,100206.59
2023-05-10T06:05:02.281Z,100204.81
2023-05-10T06:07:28.859Z,100195.44
2023-05-10T06:09:55.591Z,100195.41
2023-05-10T06:12:24.394Z,100197.94
2023-05-10T06:14:54.033Z,100200.69
2023-05-10T06:17:23.264Z,100191.47
2023-05-10T06:19:49.805Z,100189.78
2023-05-10T06:22:18.849Z,100198.34
2023-05-10T06:24:49.995Z,100205.28
2023-05-10T06:27:19.045Z,100204.41
2023-05-10T06:29:45.461Z,100207.88
2023-05-10T06:32:14.346Z,100207.84
2023-05-10T06:34:41.016Z,100208.03
2023-05-10T06:37:09.938Z,100206.34
2023-05-10T06:39:36.532Z,100208.03
2023-05-10T06:42:05.583Z,100207.25
2023-05-10T06:44:34.523Z,100204.53
2023-05-10T06:47:01.304Z,100195.94
2023-05-10T06:49:27.913Z,100204.66
2023-05-10T06:51:57.166Z,100195.19
2023-05-10T06:54:26.315Z,100198.72
2023-05-10T06:56:55.179Z,100197.94
2023-05-10T06:59:22.868Z,100191.91
2023-05-10T07:01:54.814Z,100199.66
2023-05-10T07:04:21.678Z,100196.22
2023-05-10T07:06:48.576Z,100190.22
2023-05-10T07:09:15.152Z,100178.16
2023-05-10T07:11:44.219Z,100199.75
2023-05-10T07:14:10.864Z,100187.66
2023-05-10T07:16:40.302Z,100190.22
2023-05-10T07:19:09.329Z,100190.22
2023-05-10T07:21:36.335Z,100185.94
2023-05-10T07:24:03.495Z,100198.00
2023-05-10T07:26:30.694Z,100181.63
2023-05-10T07:28:57.396Z,100190.22
2023-05-10T07:31:23.976Z,100185.06
2023-05-10T07:33:53.082Z,100185.94
2023-05-10T07:36:22.175Z,100176.38
2023-05-10T07:38:48.764Z,100177.25
2023-05-10T07:41:15.409Z,100181.59
2023-05-10T07:43:44.704Z,100173.78
2023-05-10T07:46:16.253Z,100176.38
2023-05-10T07:48:45.100Z,100174.56
2023-05-10T07:51:11.916Z,100165.97
2023-05-10T07:53:41.545Z,100172.84
2023-05-10T07:56:30.741Z,100172.88
2023-05-10T07:58:57.850Z,100182.38
2023-05-10T08:01:25.339Z,100183.25
2023-05-10T08:03:52.566Z,100179.78
2023-05-10T08:06:23.175Z,100189.38
2023-05-10T08:08:51.524Z,100186.78
2023-05-10T08:11:18.740Z,100181.56
2023-05-10T08:13:48.761Z,100180.72
2023-05-10T08:16:15.770Z,100178.13
2023-05-10T08:18:42.556Z,100178.06
2023-05-10T08:21:09.222Z,100175.31
2023-05-10T08:23:36.078Z,100179.47
2023-05-10T08:26:02.744Z,100173.25
2023-05-10T08:28:29.571Z,100175.88
2023-05-10T08:30:58.691Z,100177.06
2023-05-10T08:33:26.349Z,100174.34
2023-05-10T08:35:55.351Z,100174.97
2023-05-10T08:38:22.002Z,100180.84
2023-05-10T08:40:51.846Z,100166.72
2023-05-10T08:43:19.395Z,100163.19
2023-05-10T08:45:48.042Z,100175.31
2023-05-10T08:48:15.196Z,100163.97
2023-05-10T08:50:45.749Z,100166.81
2023-05-10T08:53:16.059Z,100175.75
2023-05-10T08:55:45.417Z,100163.94
2023-05-10T08:58:12.129Z,100171.75
2023-05-10T09:00:41.311Z,100178.75
2023-05-10T09:03:08.208Z,100169.16
2023-05-10T09:05:37.315Z,100172.63
2023-05-10T09:08:04.291Z,100178.63
2023-05-10T09:10:32.067Z,100174.09
2023-05-10T09:12:59.638Z,100172.22
2023-05-10T09:15:27.130Z,100168.47
2023-05-10T09:17:56.570Z,100175.44
2023-05-10T09:20:23.600Z,100162.06
2023-05-10T09:22:52.492Z,100165.38
2023-05-10T09:25:19.426Z,100159.31
2023-05-10T09:27:49.634Z,100164.56
2023-05-10T09:30:27.457Z,100168.28
2023-05-10T09:32:58.174Z,100164.84
2023-05-10T09:35:29.458Z,100151.09
2023-05-10T09:37:58.290Z,100157.75
2023-05-10T09:40:26.648Z,100151.56
2023-05-10T09:43:08.706Z,100153.88
2023-05-10T09:45:38.538Z,100153.41
2023-05-10T09:48:08.783Z,100159.38
2023-05-10T09:50:37.756Z,100153.09
2023-05-10T09:53:07.781Z,100159.25
2023-05-10T09:55:39.652Z,100146.84
2023-05-10T09:58:11.965Z,100149.25
2023-05-10T10:00:40.607Z,100142.91
2023-05-10T10:03:13.137Z,100140.63
2023-05-10T10:05:45.106Z,100134.34
2023-05-10T10:08:13.248Z,100140.44
2023-05-10T10:10:46.942Z,100138.03
2023-05-10T10:13:16.673Z,100134.06
2023-05-10T10:15:45.281Z,100128.97
2023-05-10T10:18:16.685Z,100126.16
2023-05-10T10:20:43.856Z,100124.75
2023-05-10T10:23:11.120Z,100117.88
2023-05-10T10:25:41.403Z,100116.31
2023-05-10T10:28:46.952Z,100109.53
2023-05-10T10:31:25.668Z,100123.88
2023-05-10T10:34:12.153Z,100119.78
2023-05-10T10:36:48.128Z,100120.75
2023-05-10T10:39:15.444Z,100109.94
2023-05-10T10:41:54.974Z,100107.03
2023-05-10T10:44:37.941Z,100113.34
2023-05-10T10:47:15.552Z,100107.50
2023-05-10T10:49:42.648Z,100103.91
2023-05-10T10:52:24.109Z,100097.50
2023-05-10T10:54:55.812Z,100095.31
2023-05-10T10:57:27.677Z,100094.47
2023-05-10T11:00:23.256Z,100085.31
2023-05-10T11:03:00.975Z,100086.69
2023-05-10T11:05:33.717Z,100061.22
2023-05-10T11:08:01.406Z,100086.63
2023-05-10T11:10:30.931Z,100078.50
2023-05-10T11:13:07.384Z,100072.25
2023-05-10T11:15:41.814Z,100082.69
2023-05-10T11:18:28.541Z,100078.06
2023-05-10T11:21:11.680Z,100071.00
2023-05-10T11:23:41.358Z,100071.50
2023-05-10T11:26:12.330Z,100073.53
2023-05-10T11:28:50.018Z,100059.44
2023-05-10T11:31:18.464Z,100065.00
2023-05-10T11:33:51.067Z,100051.88
2023-05-10T11:36:20.651Z,100054.19
2023-05-10T11:38:48.702Z,100053.31
2023-05-10T11:41:20.102Z,100048.66
2023-05-10T11:43:56.763Z,100045.78
2023-05-10T11:46:25.161Z,100050.16
2023-05-10T11:48:58.891Z,100045.00
2023-05-10T11:51:30.257Z,100043.00
2023-05-10T11:53:58.260Z,100054.75
2023-05-10T11:56:28.008Z,100053.09
2023-05-10T11:58:56.991Z,100056.25
2023-05-10T12:01:27.638Z,100051.91
2023-05-10T12:03:59.925Z,100055.53
2023-05-10T12:06:32.905Z,100057.97
2023-05-10T12:09:04.824Z,100048.91
2023-05-10T12:11:31.874Z,100052.22
2023-05-10T12:13:58.946Z,100045.56
2023-05-10T12:16:29.285Z,100041.19
2023-05-10T12:19:00.931Z,100057.03
2023-05-10T12:21:29.803Z,100046.47
2023-05-10T12:24:03.145Z,100054.38
2023-05-10T12:26:30.463Z,100055.38
2023-05-10T12:29:13.225Z,100044.88
2023-05-10T12:31:59.754Z,100038.53
2023-05-10T12:34:34.023Z,100040.59
2023-05-10T12:37:03.611Z,100042.59
2023-05-10T12:39:41.374Z,100029.09
2023-05-10T12:42:14.129Z,100032.34
2023-05-10T12:44:43.346Z,100041.09
2023-05-10T12:47:10.031Z,100028.19
2023-05-10T12:49:36.649Z,100028.53
2023-05-10T12:52:07.898Z,100020.50
2023-05-10T12:54:35.029Z,100021.75
2023-05-10T12:57:02.041Z,100021.53
2023-05-10T12:59:28.588Z,100012.34
2023-05-10T13:02:00.358Z,100013.56
2023-05-10T13:04:29.359Z,100010.53
2023-05-10T13:07:00.004Z,100015.78
2023-05-10T13:09:30.628Z,100010.00
2023-05-10T13:11:59.910Z,100011.41
2023-05-10T13:14:26.833Z,100007.66
2023-05-10T13:16:53.499Z,99991.25
2023-05-10T13:19:20.882Z,100000.94
2023-05-10T13:21:48.116Z,99986.91
2023-05-10T13:24:14.941Z,99993.38
2023-05-10T13:26:42.107Z,99988.47
2023-05-10T13:29:09.100Z,99984.09
2023-05-10T13:31:38.484Z,99982.09
2023-05-10T13:34:06.559Z,99979.50
2023-05-10T13:36:33.134Z,99975.84
2023-05-10T13:39:04.396Z,99975.00
2023-05-10T13:41:31.031Z,99972.09
2023-05-10T13:43:57.982Z,99968.38
2023-05-10T13:46:26.898Z,99978.94
2023-05-10T13:48:53.865Z,99971.47
2023-05-10T13:51:20.502Z,99973.94
2023-05-10T13:53:49.486Z,99965.56
2023-05-10T13:56:16.299Z,99962.94
2023-05-10T13:58:45.358Z,99954.44
2023-05-10T14:01:14.489Z,99961.72
2023-05-10T14:03:41.333Z,99961.25
2023-05-10T14:06:08.778Z,99954.69
2023-05-10T14:08:36.498Z,99952.84
2023-05-10T14:11:05.513Z,99947.19
2023-05-10T14:13:32.359Z,99947.84
2023-05-10T14:16:01.476Z,99939.06
2023-05-10T14:18:28.435Z,99933.44
2023-05-10T14:20:55.639Z,99933.53
2023-05-10T14:23:25.418Z,99933.06
2023-05-10T14:25:53.426Z,99925.53
2023-05-10T14:28:21.267Z,99919.88
2023-05-10T14:30:52.667Z,99929.94
2023-05-10T14:33:21.962Z,99931.91
2023-05-10T14:35:51.550Z,99942.59
2023-05-10T14:38:20.598Z,99934.91
2023-05-10T14:40:47.173Z,99932.56
2023-05-10T14:43:13.765Z,99921.91
2023-05-10T14:45:40.423Z,99926.63
2023-05-10T14:48:07.270Z,99931.50
2023-05-10T14:50:37.148Z,99925.47
2023-05-10T14:53:04.349Z,99928.41
2023-05-10T14:55:39.363Z,99917.13
2023-05-10T14:58:06.297Z,99919.00
2023-05-10T15:00:35.330Z,99917.28
2023-05-10T15:03:02.544Z,99919.59
2023-05-10T15:05:29.508Z,99917.94
2023-05-10T15:07:58.798Z,99930.09
2023-05-10T15:10:26.269Z,99922.66
2023-05-10T15:12:55.406Z,99923.41
2023-05-10T15:15:21.995Z,99924.81
2023-05-10T15:17:49.148Z,99931.44
2023-05-10T15:20:15.774Z,99939.81
2023-05-10T15:22:42.569Z,99934.94
2023-05-10T15:25:14.184Z,99919.22
2023-05-10T15:27:44.652Z,99931.78
2023-05-10T15:30:14.275Z,99935.56
2023-05-10T15:32:43.889Z,99931.03
2023-05-10T15:35:42.378Z,99939.94
2023-05-10T15:38:11.526Z,99937.69
2023-05-10T15:40:38.079Z,99934.06
2023-05-10T15:43:07.460Z,99932.69
2023-05-10T15:45:35.921Z,99916.97
2023-05-10T15:48:04.448Z,99917.75
2023-05-10T15:50:33.572Z,99912.31
2023-05-10T15:53:03.007Z,99925.06
2023-05-10T15:55:35.332Z,99913.09
2023-05-10T15:58:02.016Z,99903.25
2023-05-10T16:00:31.363Z,99922.13
2023-05-10T16:02:58.287Z,99920.31
2023-05-10T16:05:25.128Z,99928.31
2023-05-10T16:07:51.680Z,99921.97
2023-05-10T16:10:25.619Z,99926.47
2023-05-10T16:12:53.271Z,99925.16
2023-05-10T16:15:21.800Z,99928.34
2023-05-10T16:17:48.691Z,99927.13
2023-05-10T16:20:20.114Z,99917.16
2023-05-10T16:22:46.781Z,99927.44
2023-05-10T16:25:16.610Z,99914.56
2023-05-10T16:27:44.439Z,99924.72
2023-05-10T16:30:14.353Z,99929.44
2023-05-10T16:32:43.276Z,99925.72
2023-05-10T16:35:12.266Z,99922.28
2023-05-10T16:37:38.914Z,99927.88
2023-05-10T16:40:08.789Z,99931.59
2023-05-10T16:42:37.838Z,99922.78
2023-05-10T16:45:07.741Z,99928.59
2023-05-10T16:47:35.573Z,99924.78
2023-05-10T16:50:03.314Z,99924.53
2023-05-10T16:52:33.172Z,99930.00
2023-05-10T16:54:59.927Z,99938.78
2023-05-10T16:57:26.690Z,99938.97
2023-05-10T16:59:56.623Z,99940.13
2023-05-10T17:02:23.690Z,99947.84
2023-05-10T17:04:56.165Z,99946.56
2023-05-10T17:07:25.464Z,99946.53
2023-05-10T17:09:52.939Z,99951.78
2023-05-10T17:12:19.526Z,99950.19
2023-05-10T17:14:46.135Z,99945.97
2023-05-10T17:17:15.681Z,99958.81
2023-05-10T17:19:45.377Z,99960.75
2023-05-10T17:22:15.179Z,99963.47
2023-05-10T17:24:41.874Z,99961.53
2023-05-10T17:27:11.274Z,99953.97
2023-05-10T17:29:40.155Z,99963.22
2023-05-10T17:32:09.036Z,99967.06
2023-05-10T17:34:41.269Z,99968.03
2023-05-10T17:37:10.384Z,99966.34
2023-05-10T17:39:51.083Z,99968.19
2023-05-10T17:42:20.953Z,99969.91
2023-05-10T17:44:47.626Z,99966.44
2023-05-10T17:47:14.197Z,99969.97
2023-05-10T17:49:40.913Z,99980.34
2023-05-10T17:52:07.559Z,99981.19
2023-05-10T17:54:36.500Z,99973.44
2023-05-10T17:57:03.773Z,99982.06
2023-05-10T17:59:31.761Z,99977.88
2023-05-10T18:05:47.481Z,99984.09
2023-05-10T18:08:30.232Z,99991.13
2023-05-10T18:10:57.417Z,99987.59
2023-05-10T18:23:36.240Z,100003.09
2023-05-10T18:29:38.918Z,100006.81
2023-05-10T18:36:38.222Z,100016.34
2023-05-10T18:39:07.302Z,100014.72
2023-05-10T18:41:39.850Z,100012.13
2023-05-10T18:44:17.229Z,100023.34
2023-05-10T18:46:44.034Z,100019.81
2023-05-10T18:52:59.739Z,100029.38
2023-05-10T18:55:28.902Z,100031.06
2023-05-10T18:58:01.721Z,100029.31
2023-05-10T19:04:16.406Z,100036.31
2023-05-10T19:13:50.577Z,100041.50
2023-05-10T19:16:23.413Z,100046.75
2023-05-10T19:18:51.296Z,100039.91
2023-05-10T19:21:20.656Z,100035.56
2023-05-10T19:23:50.144Z,100045.03
2023-05-10T19:26:16.757Z,100038.16
2023-05-10T19:28:43.337Z,100041.63
2023-05-10T19:31:12.252Z,100038.22
2023-05-10T19:33:38.913Z,100045.13
2023-05-10T19:36:05.607Z,100042.47
2023-05-10T19:38:34.432Z,100046.75
2023-05-10T19:41:03.225Z,100047.66
2023-05-10T19:43:34.241Z,100048.50
2023-05-10T19:46:06.506Z,100049.34
2023-05-10T19:48:33.084Z,100039.91
2023-05-10T19:51:10.018Z,100048.59
2023-05-10T19:53:36.904Z,100039.13
2023-05-10T19:56:09.183Z,100041.72
2023-05-10T19:58:35.755Z,100045.19
2023-05-10T20:01:02.930Z,100033.13
2023-05-10T20:03:30.216Z,100038.28
2023-05-10T20:05:56.790Z,100036.56
2023-05-10T20:08:23.374Z,100039.16
2023-05-10T20:10:49.954Z,100040.03
2023-05-10T20:13:19.237Z,100034.84
2023-05-10T20:15:46.718Z,100048.66
2023-05-10T20:18:13.371Z,100041.78
2023-05-10T20:20:46.220Z,100041.75
2023-05-10T20:23:12.792Z,100045.25
2023-05-10T20:25:39.375Z,100041.78
2023-05-10T20:28:07.998Z,100040.03
2023-05-10T20:30:34.585Z,100046.91
2023-05-10T20:33:01.460Z,100040.03
2023-05-10T20:35:28.056Z,100046.09
2023-05-10T20:37:56.970Z,100050.41
2023-05-10T20:40:23.634Z,100043.47
2023-05-10T20:42:52.076Z,100046.97
2023-05-10T20:45:21.822Z,100046.09
2023-05-10T20:47:48.670Z,100043.50
2023-05-10T20:50:15.497Z,100043.50
2023-05-10T20:52:42.261Z,100034.03
2023-05-10T20:55:09.550Z,100039.16
2023-05-10T20:57:43.494Z,100040.03
2023-05-10T21:00:10.548Z,100048.66
2023-05-10T21:02:37.154Z,100043.50
2023-05-10T21:05:03.963Z,100040.06
2023-05-10T21:07:32.839Z,100040.03
2023-05-10T21:10:01.710Z,100043.50
2023-05-10T21:12:31.314Z,100031.41
2023-05-10T21:15:02.660Z,100033.16
2023-05-10T21:17:29.265Z,100038.31
2023-05-10T21:19:55.851Z,100042.66
2023-05-10T21:22:25.461Z,100041.75
2023-05-10T21:24:52.094Z,100036.56
2023-05-10T21:27:18.669Z,100040.88
2023-05-10T21:29:45.812Z,100039.16
2023-05-10T21:32:12.429Z,100038.31
2023-05-10T21:34:38.985Z,100036.56
2023-05-10T21:37:07.774Z,100046.09
2023-05-10T21:39:37.071Z,100044.34
2023-05-10T21:42:04.028Z,100041.78
2023-05-10T21:44:31.860Z,100036.59
2023-05-10T21:47:01.110Z,100034.88
2023-05-10T21:49:27.721Z,100045.22
2023-05-10T21:51:54.891Z,100033.13
2023-05-10T21:54:23.804Z,100046.94
2023-05-10T21:56:50.426Z,100040.06
2023-05-10T21:59:18.255Z,100036.56
2023-05-10T22:01:47.168Z,100039.19
2023-05-10T22:04:16.789Z,100040.06
2023-05-10T22:06:45.648Z,100042.63
2023-05-10T22:09:12.204Z,100046.94
2023-05-10T22:11:38.795Z,100048.69
2023-05-10T22:14:07.634Z,100047.81
2023-05-10T22:16:34.333Z,100052.13
2023-05-10T22:19:01.231Z,100050.41
2023-05-10T22:21:27.830Z,100057.31
2023-05-10T22:23:54.440Z,100063.34
2023-05-10T22:26:22.180Z,100052.13
2023-05-10T22:28:51.005Z,100051.28
2023-05-10T22:31:19.840Z,100053.84
2023-05-10T22:33:48.790Z,100060.75
2023-05-10T22:36:19.833Z,100059.03
2023-05-10T22:38:48.893Z,100060.75
2023-05-10T22:41:17.835Z,100065.09
2023-05-10T22:43:44.988Z,100065.91
2023-05-10T22:46:11.556Z,100057.31
2023-05-10T22:48:38.239Z,100059.00
2023-05-10T22:51:07.096Z,100059.03
2023-05-10T22:53:36.087Z,100056.44
2023-05-10T22:56:05.094Z,100064.13
2023-05-10T22:58:31.779Z,100066.72
2023-05-10T23:01:00.964Z,100073.66
2023-05-10T23:03:29.788Z,100072.78
2023-05-10T23:05:56.365Z,100066.72
2023-05-10T23:08:22.911Z,100064.81
2023-05-10T23:10:49.529Z,100064.91
2023-05-10T23:13:18.788Z,100062.41
2023-05-10T23:15:46.607Z,100066.69
2023-05-10T23:18:13.251Z,100072.75
2023-05-10T23:20:45.307Z,100066.75
2023-05-10T23:23:11.996Z,100069.25
2023-05-10T23:25:38.845Z,100062.28
2023-05-10T23:28:05.616Z,100069.16
2023-05-10T23:30:32.259Z,100070.97
2023-05-10T23:33:01.365Z,100070.09
2023-05-10T23:35:31.005Z,100064.94
2023-05-10T23:37:57.663Z,100069.16
2023-05-10T23:40:26.569Z,100078.66
2023-05-10T23:42:55.235Z,100072.66
2023-05-10T23:45:24.601Z,100078.63
2023-05-10T23:47:53.568Z,100081.19
2023-05-10T23:50:20.095Z,100078.56
2023-05-10T23:52:49.716Z,100075.03
2023-05-10T23:55:16.470Z,100088.47
2023-05-10T23:57:43.635Z,100085.25
